Time;durP1;ratioP1;P1;durP2;ratioP2;P2;SDS_P1;SDS_P2;PMS_P1;PMS_P2;Temp;Humidity;BMP_temperature;BMP_pressure;BME280_temperature;BME280_humidity;BME280_pressure;Samples;Min_cycle;Max_cycle;Signal;HPM_P1;HPM_P2
2023/09/25 00:01:40;;;;;;;2.95;1.83;;;11.90;66.80;;;;;;5037508;28;20079;-77
2023/09/25 00:04:07;;;;;;;6.25;2.65;;;12.00;66.80;;;;;;5036665;28;20041;-77
2023/09/25 00:06:33;;;;;;;3.47;2.05;;;11.90;67.10;;;;;;5037160;28;20341;-77
2023/09/25 00:08:59;;;;;;;5.35;2.35;;;11.90;67.00;;;;;;5037412;28;20440;-77
2023/09/25 00:11:24;;;;;;;4.10;2.15;;;11.90;67.00;;;;;;5037187;28;20064;-77
2023/09/25 00:13:50;;;;;;;2.65;2.00;;;11.80;66.90;;;;;;5037246;28;20025;-77
2023/09/25 00:16:18;;;;;;;5.97;2.35;;;11.80;67.80;;;;;;5037240;28;20123;-77
2023/09/25 00:18:44;;;;;;;6.07;2.42;;;11.90;67.20;;;;;;5036986;28;20454;-78
2023/09/25 00:21:11;;;;;;;6.53;2.15;;;11.80;67.30;;;;;;5036748;28;20029;-77
2023/09/25 00:23:38;;;;;;;3.97;2.22;;;11.90;67.10;;;;;;5036387;28;20037;-78
2023/09/25 00:26:08;;;;;;;5.22;2.40;;;11.90;67.10;;;;;;5054355;28;20033;-78
2023/09/25 00:28:34;;;;;;;5.90;2.47;;;11.90;67.20;;;;;;5036711;28;20049;-77
2023/09/25 00:31:00;;;;;;;5.35;2.20;;;11.80;66.90;;;;;;5036392;28;20133;-78
2023/09/25 00:33:26;;;;;;;4.35;2.30;;;11.90;66.90;;;;;;5053031;28;20166;-78
2023/09/25 00:35:53;;;;;;;4.43;2.30;;;11.80;66.90;;;;;;5041986;28;20052;-77
2023/09/25 00:38:20;;;;;;;5.22;2.03;;;11.80;66.90;;;;;;5054665;28;20095;-78
2023/09/25 00:40:46;;;;;;;4.28;2.50;;;11.80;66.80;;;;;;5069993;28;20035;-77
2023/09/25 00:43:15;;;;;;;4.05;2.35;;;11.80;66.70;;;;;;5052801;28;20107;-77
2023/09/25 00:45:42;;;;;;;4.78;2.20;;;11.80;66.80;;;;;;5069027;28;20120;-77
2023/09/25 00:48:24;;;;;;;4.95;2.42;;;11.70;67.70;;;;;;5069648;28;20016;-77
2023/09/25 00:50:50;;;;;;;4.63;2.25;;;11.70;66.90;;;;;;5069725;28;20116;-77
2023/09/25 00:53:15;;;;;;;5.95;2.20;;;11.70;67.00;;;;;;5069624;28;20060;-77
2023/09/25 00:55:42;;;;;;;4.57;2.63;;;11.60;67.20;;;;;;5069805;28;20428;-78
2023/09/25 00:58:08;;;;;;;4.68;2.20;;;11.60;67.10;;;;;;5069696;28;20036;-77
2023/09/25 01:00:35;;;;;;;3.83;2.15;;;11.60;67.40;;;;;;5069226;28;20119;-78
2023/09/25 01:03:01;;;;;;;3.65;1.92;;;11.70;67.10;;;;;;5069589;28;20025;-79
2023/09/25 01:05:28;;;;;;;5.15;2.40;;;11.70;66.90;;;;;;5069576;28;20552;-79
2023/09/25 01:07:53;;;;;;;3.80;2.28;;;11.70;66.90;;;;;;5069501;28;20021;-79
2023/09/25 01:10:19;;;;;;;3.97;2.25;;;11.70;67.00;;;;;;5069047;28;20120;-79
2023/09/25 01:12:47;;;;;;;3.60;2.45;;;11.70;66.90;;;;;;5069451;28;20040;-78
2023/09/25 01:15:14;;;;;;;4.10;2.80;;;11.70;66.80;;;;;;5052823;28;20025;-79
2023/09/25 01:17:39;;;;;;;2.92;2.22;;;11.70;67.10;;;;;;5069266;28;20491;-79
2023/09/25 01:20:17;;;;;;;5.30;2.33;;;11.60;66.90;;;;;;5069269;28;20113;-79
2023/09/25 01:22:47;;;;;;;3.40;1.98;;;11.70;67.10;;;;;;5037559;28;20033;-79
2023/09/25 01:25:15;;;;;;;5.05;2.60;;;11.60;66.90;;;;;;5069133;28;20025;-78
2023/09/25 01:27:42;;;;;;;4.53;2.47;;;11.70;66.90;;;;;;5069135;28;20029;-79
2023/09/25 01:30:09;;;;;;;5.65;2.17;;;11.70;66.80;;;;;;5069003;28;20044;-77
2023/09/25 01:32:42;;;;;;;5.00;2.47;;;11.70;67.00;;;;;;5068806;28;20040;-77
2023/09/25 01:35:14;;;;;;;4.90;2.45;;;11.60;66.90;;;;;;5052014;28;20037;-77
2023/09/25 01:37:41;;;;;;;5.32;2.75;;;11.60;66.90;;;;;;5035670;28;20031;-77
2023/09/25 01:40:12;;;;;;;4.13;2.13;;;11.60;66.70;;;;;;5035501;28;20075;-75
2023/09/25 01:42:39;;;;;;;4.00;2.38;;;11.60;66.80;;;;;;5036025;28;20465;-75
2023/09/25 01:45:10;;;;;;;6.82;2.80;;;11.60;66.70;;;;;;5042979;28;20083;-76
2023/09/25 01:47:36;;;;;;;4.50;2.03;;;11.60;66.70;;;;;;5035396;28;20021;-76
2023/09/25 01:50:03;;;;;;;5.53;2.33;;;11.60;66.70;;;;;;5035188;28;20077;-76
2023/09/25 01:52:29;;;;;;;3.88;2.67;;;11.60;66.70;;;;;;5035198;28;20037;-76
2023/09/25 01:54:55;;;;;;;6.32;2.45;;;11.60;66.40;;;;;;5034714;28;20119;-76
2023/09/25 01:57:21;;;;;;;4.72;2.42;;;11.60;66.40;;;;;;5034811;28;20036;-77
2023/09/25 01:59:47;;;;;;;4.30;2.47;;;11.70;66.40;;;;;;5035278;28;20119;-77
2023/09/25 02:02:13;;;;;;;4.65;2.15;;;11.60;65.70;;;;;;5035271;28;20492;-76
2023/09/25 02:04:38;;;;;;;4.00;2.17;;;11.60;65.80;;;;;;5035241;28;20057;-77
2023/09/25 02:07:04;;;;;;;5.65;2.25;;;11.70;65.90;;;;;;5035400;28;20021;-77
2023/09/25 02:09:29;;;;;;;4.80;2.30;;;11.70;65.70;;;;;;5034897;28;20036;-77
2023/09/25 02:11:55;;;;;;;4.00;2.50;;;11.70;65.50;;;;;;5035117;28;20033;-76
2023/09/25 02:14:21;;;;;;;4.28;2.50;;;11.70;65.40;;;;;;5035146;28;20025;-75
2023/09/25 02:16:47;;;;;;;3.63;2.28;;;11.70;65.60;;;;;;5034926;28;20033;-76
2023/09/25 02:19:12;;;;;;;3.47;2.55;;;11.70;65.60;;;;;;5035054;28;20114;-76
2023/09/25 02:21:38;;;;;;;4.28;2.30;;;11.70;65.80;;;;;;5034722;28;20025;-76
2023/09/25 02:24:03;;;;;;;4.38;2.65;;;11.70;65.90;;;;;;5034951;28;20024;-75
2023/09/25 02:26:29;;;;;;;6.63;2.60;;;11.60;66.00;;;;;;5052563;28;20037;-76
2023/09/25 02:28:55;;;;;;;4.45;2.42;;;11.70;65.80;;;;;;5034745;28;20021;-76
2023/09/25 02:31:21;;;;;;;3.80;2.60;;;11.70;65.30;;;;;;5052586;28;20095;-75
2023/09/25 02:33:47;;;;;;;4.00;2.80;;;11.70;65.20;;;;;;5035009;28;20063;-76
2023/09/25 02:36:12;;;;;;;2.75;2.20;;;11.70;64.80;;;;;;5042987;28;20132;-76
2023/09/25 02:38:38;;;;;;;2.72;1.90;;;11.70;65.00;;;;;;5067666;28;20079;-77
2023/09/25 02:41:05;;;;;;;4.80;2.65;;;11.80;65.10;;;;;;5068260;28;20457;-77
2023/09/25 02:43:31;;;;;;;3.45;2.33;;;11.70;65.20;;;;;;5068267;28;20033;-76
2023/09/25 02:45:56;;;;;;;6.03;2.40;;;11.70;65.20;;;;;;5068216;28;20028;-77
2023/09/25 02:48:22;;;;;;;4.50;2.22;;;11.70;65.30;;;;;;5068272;28;20079;-78
2023/09/25 02:50:49;;;;;;;5.50;2.92;;;11.70;65.00;;;;;;5068161;28;20031;-77
2023/09/25 02:53:15;;;;;;;4.43;2.55;;;11.70;65.10;;;;;;5068197;28;20434;-77
2023/09/25 02:55:48;;;;;;;4.05;2.30;;;11.70;65.20;;;;;;5068068;28;20645;-76
2023/09/25 02:58:13;;;;;;;4.25;2.50;;;11.70;65.20;;;;;;5068068;28;20028;-77
2023/09/25 03:00:39;;;;;;;5.47;2.72;;;11.70;65.30;;;;;;5067631;28;20404;-76
2023/09/25 03:03:04;;;;;;;4.88;2.58;;;11.70;65.50;;;;;;5052602;28;20399;-76
2023/09/25 03:05:31;;;;;;;3.30;2.38;;;11.60;65.40;;;;;;5068099;28;20032;-76
2023/09/25 03:07:58;;;;;;;5.22;2.33;;;11.60;65.80;;;;;;5068051;28;20025;-76
2023/09/25 03:10:23;;;;;;;3.42;2.03;;;11.60;66.00;;;;;;5071504;28;20029;-79
2023/09/25 03:12:49;;;;;;;3.20;2.40;;;11.50;66.30;;;;;;5071651;28;20123;-76
2023/09/25 03:15:14;;;;;;;4.40;2.17;;;11.50;66.80;;;;;;5071596;28;20024;-76
2023/09/25 03:17:40;;;;;;;6.43;2.58;;;11.50;66.50;;;;;;5071073;28;20151;-77
2023/09/25 03:20:14;;;;;;;3.33;2.33;;;11.50;66.40;;;;;;5054420;28;20029;-76
2023/09/25 03:22:41;;;;;;;5.97;2.55;;;11.50;66.40;;;;;;5054834;28;20025;-77
2023/09/25 03:25:07;;;;;;;3.67;2.53;;;11.50;66.30;;;;;;5071150;28;20029;-77
2023/09/25 03:27:32;;;;;;;3.58;2.40;;;11.50;66.40;;;;;;5071270;28;20021;-76
2023/09/25 03:29:58;;;;;;;3.85;2.33;;;11.50;66.20;;;;;;5054590;28;20025;-77
2023/09/25 03:32:24;;;;;;;6.05;2.55;;;11.50;66.40;;;;;;5071187;28;20033;-77
2023/09/25 03:34:50;;;;;;;3.50;2.35;;;11.40;66.10;;;;;;5070798;28;20053;-78
2023/09/25 03:37:16;;;;;;;5.68;2.03;;;11.40;65.90;;;;;;5037497;28;20541;-78
2023/09/25 03:39:41;;;;;;;4.70;2.72;;;11.50;65.80;;;;;;5037594;28;20117;-78
2023/09/25 03:42:07;;;;;;;5.60;2.33;;;11.40;65.80;;;;;;5037881;28;20020;-79
2023/09/25 03:44:33;;;;;;;4.15;2.30;;;11.50;65.60;;;;;;5037933;28;20104;-79
2023/09/25 03:46:58;;;;;;;4.13;2.47;;;11.50;65.60;;;;;;5021230;28;20033;-78
2023/09/25 03:49:24;;;;;;;4.05;2.38;;;11.50;65.60;;;;;;5037798;28;20025;-78
2023/09/25 03:51:50;;;;;;;4.95;2.60;;;11.50;65.80;;;;;;5036905;28;20041;-78
2023/09/25 03:54:15;;;;;;;5.38;2.33;;;11.50;65.70;;;;;;5037570;28;20029;-79
2023/09/25 03:56:41;;;;;;;4.68;2.75;;;11.50;65.60;;;;;;5037261;28;20028;-80
2023/09/25 03:59:06;;;;;;;3.65;2.30;;;11.50;66.50;;;;;;5037433;28;20027;-78
2023/09/25 04:01:32;;;;;;;3.00;2.20;;;11.50;65.50;;;;;;5037284;28;20482;-77
2023/09/25 04:03:59;;;;;;;2.58;2.20;;;11.50;65.40;;;;;;5037399;28;20032;-78
2023/09/25 04:06:24;;;;;;;4.57;2.63;;;11.50;65.40;;;;;;5037017;28;20025;-77
2023/09/25 04:08:50;;;;;;;3.35;2.15;;;11.50;65.60;;;;;;5036826;28;20124;-78
2023/09/25 04:11:16;;;;;;;4.13;2.20;;;11.50;65.50;;;;;;5037063;28;20044;-78
2023/09/25 04:13:41;;;;;;;3.58;2.10;;;11.50;65.40;;;;;;5037163;28;20025;-78
2023/09/25 04:16:12;;;;;;;5.15;2.38;;;11.50;65.60;;;;;;5037239;28;20116;-78
2023/09/25 04:18:38;;;;;;;3.60;2.45;;;11.50;65.40;;;;;;5037272;28;20025;-79
2023/09/25 04:21:07;;;;;;;3.50;2.10;;;11.50;65.60;;;;;;5054006;28;20025;-79
2023/09/25 04:23:33;;;;;;;3.17;2.53;;;11.50;65.60;;;;;;5037074;28;20032;-79
2023/09/25 04:26:00;;;;;;;4.30;2.53;;;11.40;65.20;;;;;;5036743;28;20028;-78
2023/09/25 04:28:30;;;;;;;4.55;2.20;;;11.40;65.40;;;;;;5036651;28;20465;-79
2023/09/25 04:30:57;;;;;;;4.97;2.67;;;11.40;65.60;;;;;;5036935;28;20078;-78
2023/09/25 04:33:24;;;;;;;7.20;3.00;;;11.30;65.60;;;;;;5036930;28;20025;-78
2023/09/25 04:35:52;;;;;;;4.50;2.83;;;11.10;65.70;;;;;;5042241;28;20045;-76
2023/09/25 04:38:19;;;;;;;3.00;2.20;;;11.00;66.00;;;;;;5070195;28;20029;-77
2023/09/25 04:40:46;;;;;;;3.17;2.45;;;10.90;66.50;;;;;;5070141;28;20028;-77
2023/09/25 04:43:12;;;;;;;3.28;2.38;;;11.00;66.70;;;;;;5070039;28;20021;-77
2023/09/25 04:45:39;;;;;;;4.13;2.83;;;10.90;67.00;;;;;;5069608;28;20118;-78
2023/09/25 04:48:06;;;;;;;4.63;2.38;;;10.80;67.20;;;;;;5069976;28;20477;-77
2023/09/25 04:50:32;;;;;;;4.20;2.50;;;10.80;67.40;;;;;;5069821;28;20067;-77
2023/09/25 04:52:58;;;;;;;4.65;2.80;;;10.70;67.60;;;;;;5054413;28;20041;-78
2023/09/25 04:55:23;;;;;;;4.90;2.22;;;10.60;68.00;;;;;;5069876;28;20036;-78
2023/09/25 04:57:49;;;;;;;4.32;2.53;;;10.50;68.50;;;;;;5069624;28;20021;-78
2023/09/25 05:00:26;;;;;;;5.38;2.40;;;10.50;68.70;;;;;;5070090;28;20381;-77
2023/09/25 05:02:53;;;;;;;6.32;2.63;;;10.30;69.40;;;;;;5075926;28;20029;-77
2023/09/25 05:05:21;;;;;;;4.97;2.40;;;10.10;70.30;;;;;;5069377;28;20100;-77
2023/09/25 05:07:49;;;;;;;7.72;3.88;;;10.20;70.30;;;;;;5069563;28;20499;-79
2023/09/25 05:10:17;;;;;;;6.07;3.80;;;10.00;71.00;;;;;;5069569;28;20021;-78
2023/09/25 05:12:45;;;;;;;7.20;4.07;;;10.00;71.20;;;;;;5068928;28;20037;-78
2023/09/25 05:15:11;;;;;;;7.70;4.60;;;9.90;71.30;;;;;;5052802;28;20040;-78
2023/09/25 05:17:38;;;;;;;8.52;4.72;;;9.90;71.90;;;;;;5068915;28;20178;-77
2023/09/25 05:20:15;;;;;;;5.45;3.63;;;9.80;72.10;;;;;;5069054;28;20028;-77
2023/09/25 05:22:43;;;;;;;6.57;3.67;;;9.70;72.10;;;;;;5054250;28;20033;-77
2023/09/25 05:25:11;;;;;;;7.13;3.90;;;9.70;72.50;;;;;;5069610;28;20116;-77
2023/09/25 05:27:38;;;;;;;6.63;3.60;;;9.70;72.50;;;;;;5068790;28;20485;-77
2023/09/25 05:30:05;;;;;;;8.50;4.32;;;9.70;72.70;;;;;;5068609;28;20083;-77
2023/09/25 05:32:33;;;;;;;9.95;4.63;;;9.60;72.80;;;;;;5068134;28;20124;-77
2023/09/25 05:35:01;;;;;;;8.13;5.25;;;9.60;73.00;;;;;;5069135;28;20104;-76
2023/09/25 05:37:27;;;;;;;7.00;4.88;;;9.60;73.00;;;;;;5053447;28;20032;-75
2023/09/25 05:39:52;;;;;;;5.78;4.43;;;9.50;74.40;;;;;;5035758;28;20377;-77
2023/09/25 05:42:18;;;;;;;9.30;3.63;;;9.50;73.50;;;;;;5035616;28;20025;-78
2023/09/25 05:44:43;;;;;;;6.75;3.30;;;9.50;73.40;;;;;;5035677;28;20036;-78
2023/09/25 05:47:09;;;;;;;5.47;3.38;;;9.50;73.60;;;;;;5035924;28;20021;-78
2023/09/25 05:49:35;;;;;;;5.70;3.50;;;9.50;73.50;;;;;;5035256;28;20025;-76
2023/09/25 05:52:03;;;;;;;3.92;2.88;;;9.60;73.50;;;;;;5035749;28;20120;-78
2023/09/25 05:54:30;;;;;;;6.00;3.47;;;9.60;73.20;;;;;;5035393;28;20071;-77
2023/09/25 05:56:55;;;;;;;5.85;3.33;;;9.70;73.20;;;;;;5035459;28;20170;-77
2023/09/25 05:59:24;;;;;;;5.40;2.95;;;9.80;73.00;;;;;;5035370;28;20021;-78
2023/09/25 06:01:50;;;;;;;6.68;3.03;;;9.90;73.00;;;;;;5035501;28;20598;-78
2023/09/25 06:04:17;;;;;;;4.05;3.05;;;9.90;72.60;;;;;;5052550;28;20045;-74
2023/09/25 06:06:43;;;;;;;5.10;3.30;;;10.10;72.40;;;;;;5040995;28;20029;-75
2023/09/25 06:09:08;;;;;;;4.32;2.80;;;10.10;72.20;;;;;;5036912;28;20017;-73
2023/09/25 06:11:38;;;;;;;6.13;3.15;;;10.10;72.00;;;;;;5035650;28;20025;-76
2023/09/25 06:14:04;;;;;;;6.90;3.80;;;10.20;71.80;;;;;;5037873;28;20036;-78
2023/09/25 06:16:30;;;;;;;5.03;3.70;;;10.30;71.60;;;;;;5036220;28;20017;-78
2023/09/25 06:18:57;;;;;;;34.08;5.05;;;10.40;71.50;;;;;;5040381;28;20033;-76
2023/09/25 06:21:22;;;;;;;8.45;3.65;;;10.60;82.60;;;;;;5035542;28;20120;-77
2023/09/25 06:23:50;;;;;;;28.60;5.13;;;10.90;81.70;;;;;;5035334;28;20067;-75
2023/09/25 06:26:15;;;;;;;8.18;3.13;;;11.10;78.90;;;;;;5034861;28;20464;-75
2023/09/25 06:28:42;;;;;;;9.05;3.20;;;11.20;75.40;;;;;;5034582;28;20137;-74
2023/09/25 06:31:08;;;;;;;8.45;3.53;;;11.40;73.00;;;;;;5052828;28;20055;-76
2023/09/25 06:33:34;;;;;;;10.52;4.10;;;11.50;71.00;;;;;;5034442;28;20021;-76
2023/09/25 06:35:59;;;;;;;6.88;3.92;;;11.60;69.40;;;;;;5041348;28;20045;-79
2023/09/25 06:38:26;;;;;;;5.85;3.00;;;11.70;69.10;;;;;;5053136;28;20075;-77
2023/09/25 06:40:52;;;;;;;5.10;3.08;;;11.80;68.40;;;;;;5068401;28;20024;-79
2023/09/25 06:43:17;;;;;;;5.10;2.90;;;11.90;67.00;;;;;;5068441;28;20028;-77
2023/09/25 06:45:44;;;;;;;6.60;3.40;;;11.80;66.80;;;;;;5072033;28;20389;-79
2023/09/25 06:48:09;;;;;;;4.07;2.63;;;11.90;67.50;;;;;;5072325;28;20385;-78
2023/09/25 06:50:35;;;;;;;5.18;3.00;;;12.00;67.10;;;;;;5056482;28;20017;-78
2023/09/25 06:53:02;;;;;;;4.03;2.78;;;12.30;66.80;;;;;;5072225;28;20040;-78
2023/09/25 06:55:27;;;;;;;4.80;2.60;;;12.40;65.80;;;;;;5056615;28;20020;-81
2023/09/25 06:57:53;;;;;;;5.40;2.88;;;12.50;65.10;;;;;;5056412;28;20461;-77
2023/09/25 07:00:18;;;;;;;4.07;2.60;;;12.60;64.80;;;;;;5056556;28;20039;-79
2023/09/25 07:02:44;;;;;;;3.63;2.67;;;12.70;64.80;;;;;;5054766;28;20357;-78
2023/09/25 07:05:10;;;;;;;4.22;2.50;;;12.70;64.40;;;;;;5071564;28;20033;-82
2023/09/25 07:07:36;;;;;;;3.45;2.40;;;12.80;63.90;;;;;;5055277;28;20029;-81
2023/09/25 07:10:10;;;;;;;3.22;2.13;;;12.80;64.60;;;;;;5071862;28;20492;-77
2023/09/25 07:12:36;;;;;;;4.20;2.78;;;12.90;63.90;;;;;;5071456;28;20033;-82
2023/09/25 07:15:03;;;;;;;7.60;2.75;;;13.10;63.50;;;;;;5055708;28;20074;-78
2023/09/25 07:17:29;;;;;;;3.63;2.40;;;13.10;62.70;;;;;;5037981;28;20048;-77
2023/09/25 07:19:56;;;;;;;6.03;2.63;;;13.20;62.40;;;;;;5071762;28;20025;-78
2023/09/25 07:22:23;;;;;;;5.05;2.88;;;13.30;62.80;;;;;;5071954;28;20057;-78
2023/09/25 07:24:49;;;;;;;5.72;3.58;;;13.30;62.60;;;;;;5071402;28;20087;-78
2023/09/25 07:27:16;;;;;;;5.32;2.95;;;13.40;62.20;;;;;;5071537;28;20492;-77
2023/09/25 07:29:45;;;;;;;5.00;2.65;;;13.60;61.20;;;;;;5056059;28;20040;-79
2023/09/25 07:32:13;;;;;;;4.20;2.63;;;13.70;61.40;;;;;;5055860;28;20482;-78
2023/09/25 07:34:40;;;;;;;4.72;2.50;;;13.90;60.00;;;;;;5075863;28;20027;-78
2023/09/25 07:37:07;;;;;;;8.38;2.80;;;14.00;60.00;;;;;;5054980;28;20503;-76
2023/09/25 07:39:38;;;;;;;5.10;2.63;;;14.10;59.20;;;;;;5071339;28;20381;-77
2023/09/25 07:42:04;;;;;;;3.83;2.97;;;14.30;58.80;;;;;;5071351;28;20123;-76
2023/09/25 07:44:33;;;;;;;5.90;2.45;;;14.20;57.80;;;;;;5071211;28;20025;-80
2023/09/25 07:46:59;;;;;;;9.15;2.60;;;14.40;59.00;;;;;;5071082;28;20130;-81
2023/09/25 07:49:27;;;;;;;5.15;2.60;;;14.60;58.40;;;;;;5071360;28;20025;-76
2023/09/25 07:51:53;;;;;;;5.45;2.90;;;14.70;57.50;;;;;;5055493;28;20025;-78
2023/09/25 07:54:19;;;;;;;5.32;2.50;;;14.80;56.80;;;;;;5053851;28;20028;-76
2023/09/25 07:56:44;;;;;;;5.10;2.60;;;14.90;56.40;;;;;;5071080;28;20469;-76
2023/09/25 07:59:13;;;;;;;5.55;2.80;;;15.00;56.20;;;;;;5071016;28;20017;-78
2023/09/25 08:01:42;;;;;;;4.53;2.35;;;15.00;55.40;;;;;;5070790;28;20040;-76
2023/09/25 08:04:13;;;;;;;5.80;2.50;;;15.10;55.60;;;;;;5055021;28;20025;-78
2023/09/25 08:06:38;;;;;;;4.90;3.05;;;15.10;55.50;;;;;;5070980;28;20059;-78
2023/09/25 08:09:05;;;;;;;5.03;2.47;;;15.10;56.20;;;;;;5071129;28;20035;-80
2023/09/25 08:11:32;;;;;;;7.07;2.70;;;15.10;56.40;;;;;;5070332;28;20078;-78
2023/09/25 08:13:58;;;;;;;4.72;2.30;;;15.30;56.60;;;;;;5037730;28;20029;-77
2023/09/25 08:16:27;;;;;;;5.18;2.85;;;15.40;55.90;;;;;;5070962;28;20470;-77
2023/09/25 08:18:52;;;;;;;5.22;2.75;;;15.40;55.70;;;;;;5055100;28;20535;-78
2023/09/25 08:21:19;;;;;;;6.20;2.60;;;15.60;56.10;;;;;;5070779;28;20053;-78
2023/09/25 08:23:45;;;;;;;7.18;2.90;;;15.70;55.70;;;;;;5069947;28;20102;-78
2023/09/25 08:26:10;;;;;;;7.80;2.72;;;15.60;54.70;;;;;;5053465;28;20077;-78
2023/09/25 08:28:37;;;;;;;5.93;2.40;;;15.80;56.10;;;;;;5049830;28;20049;-78
2023/09/25 08:31:03;;;;;;;6.15;2.55;;;15.80;54.00;;;;;;5033728;28;20038;-77
2023/09/25 08:33:30;;;;;;;5.80;2.78;;;16.00;55.10;;;;;;5034649;28;20044;-78
2023/09/25 08:35:56;;;;;;;6.03;2.60;;;16.10;55.60;;;;;;5034984;28;20068;-78
2023/09/25 08:38:21;;;;;;;5.68;2.10;;;16.30;53.50;;;;;;5017239;28;20481;-78
2023/09/25 08:40:50;;;;;;;4.90;2.50;;;16.40;53.10;;;;;;5017035;28;20029;-78
2023/09/25 08:43:16;;;;;;;4.93;2.28;;;16.50;52.70;;;;;;5018098;28;20021;-78
2023/09/25 08:45:46;;;;;;;4.22;2.10;;;16.60;52.80;;;;;;5019581;28;20049;-78
2023/09/25 08:48:15;;;;;;;6.47;2.42;;;16.80;52.60;;;;;;5018054;28;20024;-78
2023/09/25 08:50:41;;;;;;;6.35;2.67;;;16.90;51.60;;;;;;5016396;28;20029;-79
2023/09/25 08:53:08;;;;;;;5.53;2.40;;;17.00;52.00;;;;;;5016747;28;20363;-77
2023/09/25 08:55:35;;;;;;;4.65;2.47;;;17.00;52.00;;;;;;5034170;28;20041;-78
2023/09/25 08:58:03;;;;;;;5.63;2.55;;;17.10;50.70;;;;;;5034218;28;20036;-78
2023/09/25 09:00:29;;;;;;;7.43;2.53;;;17.10;50.30;;;;;;5016458;28;20025;-78
2023/09/25 09:02:57;;;;;;;4.55;2.45;;;16.90;51.90;;;;;;5016457;28;20060;-79
2023/09/25 09:05:24;;;;;;;3.92;2.30;;;16.90;51.30;;;;;;5033273;28;20029;-80
2023/09/25 09:07:59;;;;;;;3.35;2.35;;;16.60;52.80;;;;;;5000614;28;20044;-80
2023/09/25 09:10:55;;;;;;;;;;;16.70;52.60;;;;;;5016009;28;20045;-81
2023/09/25 09:13:48;;;;;;;3.53;2.03;;;16.90;52.50;;;;;;5038180;28;19920;-80
2023/09/25 09:16:17;;;;;;;2.95;2.22;;;16.80;52.60;;;;;;5028264;28;20113;-80
2023/09/25 09:18:46;;;;;;;4.03;2.30;;;16.80;52.80;;;;;;5025494;28;20391;-79
2023/09/25 09:21:26;;;;;;;2.90;2.00;;;16.90;52.70;;;;;;5010294;28;20032;-79
2023/09/25 09:24:18;;;;;;;4.95;2.38;;;17.00;52.30;;;;;;5048143;28;20029;-82
2023/09/25 09:27:43;;;;;;;3.85;2.50;;;17.00;52.60;;;;;;5033906;28;20044;-80
2023/09/25 09:34:42;;;;;;;2.67;1.90;;;17.10;52.40;;;;;;4992327;28;20077;-80
2023/09/25 09:37:08;;;;;;;6.45;3.75;;;17.20;51.90;;;;;;4975486;28;20054;-80
2023/09/25 09:39:35;;;;;;;4.00;2.30;;;17.50;51.70;;;;;;4991967;28;20023;-80
2023/09/25 09:42:09;;;;;;;4.40;2.33;;;17.40;50.00;;;;;;4992084;28;20443;-80
2023/09/25 09:44:38;;;;;;;5.30;2.40;;;17.50;51.50;;;;;;4991854;28;20034;-80
2023/09/25 09:47:06;;;;;;;3.85;2.10;;;17.70;50.60;;;;;;4992396;28;20034;-79
2023/09/25 09:49:35;;;;;;;4.00;1.90;;;18.10;49.90;;;;;;5020622;28;20505;-80
2023/09/25 09:52:03;;;;;;;4.30;2.38;;;18.40;49.80;;;;;;5023608;28;20045;-79
2023/09/25 09:54:40;;;;;;;4.82;2.40;;;18.30;48.20;;;;;;5025543;28;20508;-80
2023/09/25 09:57:07;;;;;;;3.45;1.98;;;18.40;49.10;;;;;;5034882;28;20051;-80
2023/09/25 09:59:32;;;;;;;5.22;2.30;;;18.60;49.70;;;;;;5042160;28;20036;-80
2023/09/25 10:02:00;;;;;;;2.45;1.98;;;18.90;48.90;;;;;;5038892;28;20025;-80
2023/09/25 10:04:42;;;;;;;5.40;2.10;;;19.10;48.20;;;;;;5040873;28;20018;-80
2023/09/25 10:07:08;;;;;;;5.30;2.15;;;18.90;47.20;;;;;;5040897;28;20030;-78
2023/09/25 10:09:39;;;;;;;2.17;1.60;;;19.00;47.00;;;;;;5034607;28;20092;-79
2023/09/25 10:12:06;;;;;;;2.03;1.70;;;19.20;47.00;;;;;;5025734;28;20033;-79
2023/09/25 10:14:43;;;;;;;2.10;1.63;;;19.60;46.10;;;;;;5019454;28;20025;-80
2023/09/25 10:17:09;;;;;;;3.00;2.00;;;19.80;45.30;;;;;;5009587;28;20134;-79
2023/09/25 10:19:40;;;;;;;3.03;1.83;;;19.90;45.20;;;;;;5025719;28;20068;-77
2023/09/25 10:22:30;;;;;;;3.47;2.30;;;19.70;44.30;;;;;;5025778;28;20029;-79
2023/09/25 10:25:12;;;;;;;2.45;2.10;;;19.80;45.20;;;;;;5042604;28;20024;-79
2023/09/25 10:27:38;;;;;;;2.65;1.77;;;19.80;45.30;;;;;;5042267;28;20511;-78
2023/09/25 10:30:18;;;;;;;4.93;3.42;;;20.00;44.40;;;;;;5040679;28;20024;-81
2023/09/25 10:32:55;;;;;;;7.25;6.38;;;20.30;44.50;;;;;;5018469;28;20089;-79
2023/09/25 10:35:43;;;;;;;3.17;2.25;;;20.60;43.50;;;;;;5053316;28;20060;-77
2023/09/25 10:38:17;;;;;;;2.25;1.70;;;21.00;42.90;;;;;;5057304;28;20025;-78
2023/09/25 10:40:47;;;;;;;2.85;1.90;;;21.30;41.50;;;;;;5047681;28;20052;-78
2023/09/25 10:43:16;;;;;;;3.15;1.48;;;20.90;41.50;;;;;;5050014;28;20018;-80
2023/09/25 10:45:44;;;;;;;4.28;1.80;;;21.10;41.70;;;;;;5056769;28;20028;-79
2023/09/25 10:48:10;;;;;;;4.03;1.60;;;21.10;40.60;;;;;;5049232;28;20024;-79
2023/09/25 10:50:37;;;;;;;2.70;1.50;;;21.20;40.90;;;;;;5056172;28;20022;-78
2023/09/25 10:53:08;;;;;;;3.25;2.03;;;21.50;40.70;;;;;;5042665;28;20072;-82
2023/09/25 10:55:35;;;;;;;3.67;1.83;;;21.60;39.80;;;;;;5044629;28;20070;-84
2023/09/25 10:58:02;;;;;;;4.28;2.22;;;21.80;39.60;;;;;;5051485;28;20116;-78
2023/09/25 11:00:30;;;;;;;4.82;1.83;;;21.90;39.20;;;;;;5034641;28;20037;-78
2023/09/25 11:02:56;;;;;;;3.33;2.28;;;22.10;39.40;;;;;;5052363;28;20040;-79
2023/09/25 11:05:24;;;;;;;6.53;2.47;;;22.30;40.00;;;;;;5051752;28;20025;-78
2023/09/25 11:07:50;;;;;;;3.53;2.22;;;22.30;38.80;;;;;;5050173;28;20484;-81
2023/09/25 11:10:17;;;;;;;3.30;2.05;;;22.50;39.90;;;;;;5050503;28;20114;-81
2023/09/25 11:12:47;;;;;;;5.22;1.98;;;22.70;39.30;;;;;;5050589;28;20037;-78
2023/09/25 11:15:16;;;;;;;3.58;2.10;;;23.00;39.50;;;;;;4999254;28;20048;-77
2023/09/25 11:17:43;;;;;;;2.38;2.03;;;23.10;39.20;;;;;;5048508;28;20025;-76
2023/09/25 11:20:18;;;;;;;2.33;1.90;;;23.40;39.30;;;;;;5035489;28;20040;-78
2023/09/25 11:22:44;;;;;;;3.85;1.77;;;23.50;37.70;;;;;;5049136;28;20021;-83
2023/09/25 11:25:17;;;;;;;3.85;2.10;;;23.70;36.70;;;;;;5032906;28;20034;-82
2023/09/25 11:27:57;;;;;;;3.75;1.80;;;23.70;37.20;;;;;;5015858;28;20091;-77
2023/09/25 11:30:27;;;;;;;3.17;2.00;;;24.00;37.10;;;;;;5049530;28;20022;-76
2023/09/25 11:32:54;;;;;;;2.63;1.83;;;24.00;36.60;;;;;;5050546;28;20135;-77
2023/09/25 11:35:20;;;;;;;2.50;1.92;;;23.70;37.20;;;;;;5050556;28;20144;-76
2023/09/25 11:38:00;;;;;;;2.75;1.88;;;23.80;36.80;;;;;;5050794;28;20492;-77
2023/09/25 11:40:27;;;;;;;2.88;2.10;;;23.90;37.50;;;;;;5050543;28;20497;-77
2023/09/25 11:42:56;;;;;;;4.15;1.80;;;24.00;36.50;;;;;;5050619;28;20118;-77
2023/09/25 11:45:23;;;;;;;2.75;1.80;;;23.90;37.90;;;;;;5050599;28;20030;-79
2023/09/25 11:47:49;;;;;;;3.05;1.55;;;24.10;36.40;;;;;;5050959;28;20473;-78
2023/09/25 11:50:16;;;;;;;2.15;1.55;;;24.20;36.80;;;;;;5050585;28;20103;-77
2023/09/25 11:52:43;;;;;;;3.33;2.10;;;24.40;36.10;;;;;;5050555;28;20076;-78
2023/09/25 11:55:12;;;;;;;3.38;2.10;;;24.50;36.00;;;;;;5034574;28;20032;-78
2023/09/25 11:57:41;;;;;;;3.90;2.00;;;24.50;36.20;;;;;;5050887;28;20543;-77
2023/09/25 12:00:11;;;;;;;3.05;1.73;;;24.60;36.10;;;;;;5050828;28;20116;-77
2023/09/25 12:02:37;;;;;;;3.15;1.70;;;24.60;35.80;;;;;;5050511;28;20025;-78
2023/09/25 12:05:04;;;;;;;2.83;1.52;;;24.70;35.10;;;;;;5057864;28;20032;-78
2023/09/25 12:07:36;;;;;;;2.00;1.50;;;24.80;35.50;;;;;;5042852;28;20056;-77
2023/09/25 12:10:06;;;;;;;4.10;1.67;;;25.10;35.30;;;;;;5043562;28;20071;-77
2023/09/25 12:12:34;;;;;;;4.15;1.65;;;25.40;34.60;;;;;;5050009;28;20037;-77
2023/09/25 12:15:02;;;;;;;4.40;1.40;;;25.70;34.20;;;;;;5042075;28;20017;-77
2023/09/25 12:17:28;;;;;;;3.38;1.95;;;25.80;32.80;;;;;;5059258;28;20101;-77
2023/09/25 12:19:54;;;;;;;1.90;1.50;;;26.00;32.80;;;;;;5066617;28;20437;-77
2023/09/25 12:22:20;;;;;;;5.63;1.73;;;26.00;32.50;;;;;;5070206;28;20033;-77
2023/09/25 12:24:46;;;;;;;2.75;1.90;;;26.00;32.60;;;;;;5070230;28;20025;-77
2023/09/25 12:27:12;;;;;;;5.07;2.35;;;26.00;33.30;;;;;;5070147;28;20483;-77
2023/09/25 12:29:38;;;;;;;8.27;2.03;;;26.20;33.60;;;;;;5069826;28;20581;-77
2023/09/25 12:32:03;;;;;;;1.95;1.60;;;26.40;32.20;;;;;;5069807;28;20131;-77
2023/09/25 12:34:29;;;;;;;3.08;1.85;;;26.50;32.30;;;;;;5069947;28;20151;-77
2023/09/25 12:36:55;;;;;;;1.63;1.50;;;26.40;32.00;;;;;;5056384;28;20068;-78
2023/09/25 12:39:21;;;;;;;3.35;2.00;;;26.40;32.50;;;;;;5053357;28;20162;-77
2023/09/25 12:41:47;;;;;;;3.95;1.65;;;26.50;30.90;;;;;;5052077;28;20066;-76
2023/09/25 12:44:14;;;;;;;3.80;2.05;;;26.50;32.70;;;;;;5054198;28;20481;-79
2023/09/25 12:46:40;;;;;;;7.00;2.13;;;26.60;31.70;;;;;;5036632;28;20037;-76
2023/09/25 12:49:05;;;;;;;4.78;2.00;;;26.70;31.80;;;;;;5036112;28;20083;-76
2023/09/25 12:51:31;;;;;;;2.17;1.70;;;26.70;31.10;;;;;;5052768;28;20041;-73
2023/09/25 12:53:56;;;;;;;3.85;2.25;;;26.30;31.30;;;;;;5052797;28;20061;-74
2023/09/25 12:56:22;;;;;;;4.45;1.85;;;26.30;32.40;;;;;;5052885;28;20462;-76